Time;durP1;ratioP1;P1;durP2;ratioP2;P2;SDS_P1;SDS_P2;PMS_P1;PMS_P2;Temp;Humidity;BMP_temperature;BMP_pressure;BME280_temperature;BME280_humidity;BME280_pressure;Samples;Min_cycle;Max_cycle;Signal;HPM_P1;HPM_P2
2022/09/23 00:01:32;;;;;;;16.83;9.02;;;;;;;20.65;88.11;101609.88;5025764;28;20049;-49
2022/09/23 00:03:59;;;;;;;18.30;9.10;;;;;;;20.70;88.32;101612.69;5016861;28;20086;-52
2022/09/23 00:06:28;;;;;;;16.57;9.10;;;;;;;20.66;89.53;101614.25;4991564;28;20031;-49
2022/09/23 00:08:54;;;;;;;16.30;10.40;;;;;;;20.69;89.09;101610.22;4991293;28;20349;-52
2022/09/23 00:11:22;;;;;;;21.23;9.83;;;;;;;20.54;89.03;101610.78;5011871;28;20288;-49
2022/09/23 00:13:50;;;;;;;18.57;9.93;;;;;;;20.52;90.37;101604.72;5004844;28;20033;-51
2022/09/23 00:16:19;;;;;;;17.20;9.77;;;;;;;20.58;91.45;101609.22;5010126;28;20288;-50
2022/09/23 00:18:44;;;;;;;21.20;10.23;;;;;;;20.57;92.52;101604.84;5002764;28;20265;-54
2022/09/23 00:21:13;;;;;;;15.98;10.38;;;;;;;20.52;92.10;101607.44;5007299;28;20302;-51
2022/09/23 00:23:41;;;;;;;16.97;9.53;;;;;;;20.61;91.00;101603.28;5013036;28;20109;-54
2022/09/23 00:26:10;;;;;;;14.07;9.77;;;;;;;20.07;93.34;101596.31;5012145;28;20278;-52
2022/09/23 00:28:37;;;;;;;20.20;10.37;;;;;;;20.08;97.16;101594.41;5011618;28;20261;-49
2022/09/23 00:31:03;;;;;;;15.65;10.32;;;;;;;19.97;99.09;101590.66;4992765;28;20277;-49
2022/09/23 00:33:29;;;;;;;19.90;10.65;;;;;;;19.73;100.00;101582.56;5006353;28;20031;-49
2022/09/23 00:36:03;;;;;;;18.33;10.70;;;;;;;19.76;100.00;101579.34;4996306;28;20068;-50
2022/09/23 00:38:29;;;;;;;20.63;10.90;;;;;;;19.80;100.00;101585.94;5007724;28;20285;-51
2022/09/23 00:40:55;;;;;;;21.08;11.50;;;;;;;19.80;100.00;101577.81;5010508;28;20291;-52
2022/09/23 00:43:59;;;;;;;20.05;11.07;;;;;;;19.86;100.00;101584.16;5002953;28;20078;-48
2022/09/23 00:46:33;;;;;;;21.03;10.40;;;;;;;19.80;100.00;101582.44;4994884;28;20046;-51
2022/09/23 00:49:11;;;;;;;20.20;11.27;;;;;;;19.67;100.00;101583.50;5004622;28;20288;-51
2022/09/23 00:51:43;;;;;;;20.03;10.83;;;;;;;19.65;100.00;101580.22;5025069;28;20290;-51
2022/09/23 00:54:09;;;;;;;15.47;10.27;;;;;;;20.14;100.00;101579.88;4994640;28;20273;-54
2022/09/23 00:56:37;;;;;;;23.98;11.48;;;;;;;19.82;100.00;101572.97;5005428;28;20304;-53
2022/09/23 00:59:05;;;;;;;18.93;10.77;;;;;;;19.79;100.00;101568.03;4996541;28;20031;-51
2022/09/23 01:01:30;;;;;;;20.83;10.90;;;;;;;19.38;100.00;101564.44;5012639;28;20304;-52
2022/09/23 01:03:57;;;;;;;15.53;10.00;;;;;;;19.42;100.00;101563.72;5011292;28;20288;-54
2022/09/23 01:06:22;;;;;;;18.70;11.35;;;;;;;19.58;100.00;101564.88;5017335;28;20289;-51
2022/09/23 01:08:48;;;;;;;26.20;11.00;;;;;;;19.66;99.09;101568.31;4994047;28;20035;-54
2022/09/23 01:11:22;;;;;;;19.35;11.98;;;;;;;19.73;97.59;101566.28;5013036;28;20064;-49
2022/09/23 01:13:59;;;;;;;18.40;10.97;;;;;;;19.26;100.00;101567.97;5003090;28;20112;-51
2022/09/23 01:16:45;;;;;;;14.65;10.23;;;;;;;19.21;100.00;101567.88;5004083;28;20300;-51
2022/09/23 01:19:49;;;;;;;17.30;11.00;;;;;;;19.08;100.00;101563.50;4992195;28;20042;-54
2022/09/23 01:22:43;;;;;;;16.03;10.50;;;;;;;19.15;100.00;101564.19;5004012;28;20265;-49
2022/09/23 01:25:26;;;;;;;18.37;11.23;;;;;;;19.14;100.00;101557.13;4992137;28;20352;-49
2022/09/23 01:28:40;;;;;;;23.70;11.67;;;;;;;19.18;100.00;101561.03;5001961;28;20280;-49
2022/09/23 01:31:19;;;;;;;17.67;11.23;;;;;;;19.17;100.00;101561.28;5009833;28;20337;-53
2022/09/23 01:33:55;;;;;;;19.37;12.10;;;;;;;19.06;100.00;101561.00;5014300;28;20261;-50
2022/09/23 01:36:32;;;;;;;17.27;11.45;;;;;;;19.04;100.00;101555.00;5017966;28;20284;-51
2022/09/23 01:39:13;;;;;;;18.77;11.52;;;;;;;19.02;100.00;101554.41;5011341;28;20033;-50
2022/09/23 01:42:03;;;;;;;18.60;11.87;;;;;;;19.38;100.00;101546.28;5013437;28;20045;-53
2022/09/23 01:44:42;;;;;;;19.20;11.30;;;;;;;19.43;100.00;101546.38;5010184;28;20269;-51
2022/09/23 01:47:16;;;;;;;18.57;11.17;;;;;;;19.43;100.00;101551.00;5002773;28;20279;-50
2022/09/23 01:49:59;;;;;;;18.67;11.27;;;;;;;19.38;100.00;101550.88;4987364;28;20356;-55
2022/09/23 01:52:43;;;;;;;20.20;10.90;;;;;;;19.20;100.00;101550.75;5001043;28;20276;-52
2022/09/23 01:55:17;;;;;;;17.93;11.27;;;;;;;18.85;100.00;101553.44;4996068;28;20336;-51
2022/09/23 01:57:48;;;;;;;18.97;11.93;;;;;;;18.92;100.00;101549.56;4989108;28;20292;-49
2022/09/23 02:00:17;;;;;;;22.50;12.20;;;;;;;18.70;100.00;101546.59;5007898;28;20967;-51
2022/09/23 02:02:49;;;;;;;16.83;11.17;;;;;;;18.71;100.00;101550.94;5008658;28;20321;-49
2022/09/23 02:05:22;;;;;;;19.80;12.17;;;;;;;18.77;100.00;101552.72;5001186;28;20302;-54
2022/09/23 02:08:04;;;;;;;17.33;11.23;;;;;;;18.69;100.00;101544.94;5012929;28;20334;-50
2022/09/23 02:10:40;;;;;;;21.77;11.87;;;;;;;18.46;100.00;101546.53;5006971;28;20292;-51
2022/09/23 02:13:23;;;;;;;19.02;12.00;;;;;;;18.13;100.00;101550.53;5007132;28;20361;-51
2022/09/23 02:15:54;;;;;;;16.53;11.53;;;;;;;18.05;100.00;101542.72;5002354;28;20040;-53
2022/09/23 02:18:25;;;;;;;21.50;12.00;;;;;;;18.09;100.00;101537.66;4991511;28;20289;-51
2022/09/23 02:20:58;;;;;;;20.30;12.03;;;;;;;18.18;100.00;101533.59;5001958;28;20284;-52
2022/09/23 02:23:29;;;;;;;18.50;11.93;;;;;;;17.91;100.00;101521.22;5024716;28;20365;-49
2022/09/23 02:26:20;;;;;;;25.13;11.97;;;;;;;17.97;100.00;101524.06;4990949;28;20272;-48
2022/09/23 02:29:00;;;;;;;18.87;11.00;;;;;;;18.04;100.00;101522.94;5017185;28;20262;-48
2022/09/23 02:31:36;;;;;;;18.17;11.23;;;;;;;18.00;100.00;101510.91;5002499;28;20303;-47
2022/09/23 02:34:40;;;;;;;19.60;11.20;;;;;;;17.80;100.00;101511.16;5000467;28;20279;-48
2022/09/23 02:37:12;;;;;;;21.70;11.97;;;;;;;17.61;100.00;101508.47;5025539;28;20304;-49
2022/09/23 02:39:46;;;;;;;23.20;11.83;;;;;;;17.56;100.00;101502.94;4995391;28;20269;-48
2022/09/23 02:42:18;;;;;;;22.47;12.33;;;;;;;17.55;100.00;101503.97;5017287;28;20273;-50
2022/09/23 02:44:44;;;;;;;22.13;11.73;;;;;;;17.37;100.00;101502.09;5001846;28;20265;-48
2022/09/23 02:47:09;;;;;;;19.73;11.63;;;;;;;17.33;100.00;101492.78;5003225;28;20285;-50
2022/09/23 02:49:35;;;;;;;17.70;11.60;;;;;;;17.23;100.00;101490.59;5003085;28;20325;-48
2022/09/23 02:52:03;;;;;;;24.48;11.95;;;;;;;17.23;100.00;101490.59;5013864;28;20047;-48
2022/09/23 02:54:32;;;;;;;25.90;12.33;;;;;;;17.59;100.00;101486.25;5010951;28;20065;-48
2022/09/23 02:57:01;;;;;;;21.97;12.63;;;;;;;17.88;100.00;101491.91;5001132;28;20291;-51
2022/09/23 02:59:29;;;;;;;23.10;12.13;;;;;;;17.89;100.00;101487.34;4992225;28;20288;-51
2022/09/23 03:02:16;;;;;;;21.50;11.93;;;;;;;18.04;100.00;101485.06;5013329;28;20281;-49
2022/09/23 03:05:22;;;;;;;19.08;12.23;;;;;;;17.30;100.00;101483.25;5010045;28;20257;-52
2022/09/23 03:08:13;;;;;;;19.57;12.20;;;;;;;17.98;100.00;101480.53;5002775;28;20034;-49
2022/09/23 03:11:05;;;;;;;18.15;10.93;;;;;;;17.46;100.00;101473.72;4990704;28;20268;-52
2022/09/23 03:13:41;;;;;;;25.42;12.02;;;;;;;17.33;100.00;101477.41;5002647;28;20039;-54
2022/09/23 03:16:42;;;;;;;19.50;11.82;;;;;;;17.15;100.00;101478.19;5003855;28;20038;-50
2022/09/23 03:19:20;;;;;;;19.15;12.55;;;;;;;17.23;100.00;101468.97;4992707;28;20051;-50
2022/09/23 03:22:01;;;;;;;26.02;12.93;;;;;;;17.57;100.00;101474.00;4991544;28;20035;-52
2022/09/23 03:24:30;;;;;;;24.00;11.93;;;;;;;17.23;100.00;101473.56;4998792;28;20049;-50
2022/09/23 03:26:59;;;;;;;23.63;13.35;;;;;;;17.18;100.00;101471.53;5009876;28;20027;-51
2022/09/23 03:29:27;;;;;;;26.85;12.27;;;;;;;17.03;100.00;101469.19;4999689;28;20023;-53
2022/09/23 03:31:54;;;;;;;21.17;13.35;;;;;;;17.19;100.00;101465.06;4992408;28;20030;-48
2022/09/23 03:34:25;;;;;;;21.92;12.55;;;;;;;17.40;100.00;101468.38;5017991;28;20061;-50
2022/09/23 03:36:59;;;;;;;22.20;12.60;;;;;;;17.63;100.00;101467.66;4992012;28;20057;-48
2022/09/23 03:39:33;;;;;;;18.10;11.43;;;;;;;17.36;100.00;101475.28;5001003;28;20064;-49
2022/09/23 03:42:06;;;;;;;21.13;12.23;;;;;;;17.18;100.00;101474.22;4981136;28;20326;-51
2022/09/23 03:44:38;;;;;;;20.80;12.60;;;;;;;16.97;100.00;101476.28;4990172;28;20273;-49
2022/09/23 03:47:04;;;;;;;16.27;11.50;;;;;;;17.13;100.00;101474.06;4991855;28;20293;-52
2022/09/23 03:49:35;;;;;;;20.98;12.68;;;;;;;17.34;100.00;101476.34;4991702;28;20058;-50
2022/09/23 03:52:02;;;;;;;17.70;12.00;;;;;;;17.69;100.00;101472.19;4991768;28;20070;-51
2022/09/23 03:54:31;;;;;;;22.80;13.07;;;;;;;17.75;100.00;101459.59;4991559;28;20039;-52
2022/09/23 03:56:58;;;;;;;19.97;12.60;;;;;;;17.54;100.00;101450.94;5001728;28;20300;-52
2022/09/23 03:59:25;;;;;;;22.95;14.05;;;;;;;17.34;100.00;101456.59;4991863;28;20261;-48
2022/09/23 04:01:52;;;;;;;23.10;13.93;;;;;;;17.33;100.00;101450.38;5012060;28;20030;-48
2022/09/23 04:04:18;;;;;;;23.48;13.35;;;;;;;17.58;100.00;101451.31;5004586;28;20030;-48
2022/09/23 04:06:43;;;;;;;23.27;12.55;;;;;;;17.88;100.00;101456.72;4991752;28;20039;-50
2022/09/23 04:09:09;;;;;;;22.75;12.32;;;;;;;17.81;100.00;101460.59;5008828;28;20034;-48
2022/09/23 04:11:35;;;;;;;23.53;12.63;;;;;;;17.42;100.00;101458.16;5011975;28;20034;-50
2022/09/23 04:14:00;;;;;;;24.63;13.85;;;;;;;17.86;100.00;101455.31;4990856;28;20043;-52
2022/09/23 04:16:26;;;;;;;19.83;13.82;;;;;;;17.85;100.00;101454.50;4991795;28;20110;-51
2022/09/23 04:18:51;;;;;;;21.60;12.17;;;;;;;17.88;100.00;101459.44;5014849;28;20052;-52
2022/09/23 04:21:17;;;;;;;19.67;11.47;;;;;;;17.95;100.00;101464.75;5000952;28;20315;-47
2022/09/23 04:23:42;;;;;;;26.13;12.75;;;;;;;17.88;100.00;101458.63;4988106;28;20049;-52
2022/09/23 04:26:08;;;;;;;20.40;13.70;;;;;;;17.80;100.00;101450.81;5009517;28;20031;-50
2022/09/23 04:28:34;;;;;;;24.17;13.82;;;;;;;17.51;100.00;101445.97;4989801;28;20260;-52
2022/09/23 04:31:05;;;;;;;27.93;14.23;;;;;;;17.37;100.00;101448.00;4993903;28;20046;-47
2022/09/23 04:33:30;;;;;;;23.17;13.02;;;;;;;17.27;100.00;101450.44;4999007;28;20061;-49
2022/09/23 04:35:56;;;;;;;21.25;12.57;;;;;;;17.26;100.00;101440.69;4999439;28;20042;-53
2022/09/23 04:38:21;;;;;;;27.87;14.13;;;;;;;17.25;100.00;101444.44;5001510;28;20068;-49
2022/09/23 04:40:47;;;;;;;20.17;13.60;;;;;;;17.09;100.00;101445.84;5010625;28;20272;-48
2022/09/23 04:43:14;;;;;;;20.08;13.13;;;;;;;17.02;100.00;101451.31;5001708;28;20277;-51
2022/09/23 04:45:41;;;;;;;22.02;12.98;;;;;;;16.81;100.00;101439.84;5002930;28;20029;-49
2022/09/23 04:48:09;;;;;;;23.63;13.35;;;;;;;16.67;100.00;101443.72;5001378;28;20084;-50
2022/09/23 04:50:36;;;;;;;26.08;13.38;;;;;;;16.53;100.00;101443.00;5006016;28;20123;-48
2022/09/23 04:53:02;;;;;;;20.42;13.65;;;;;;;16.41;100.00;101440.19;5012482;28;20025;-53
2022/09/23 04:55:27;;;;;;;25.20;14.95;;;;;;;16.42;100.00;101439.16;5014196;28;20050;-48
2022/09/23 04:57:53;;;;;;;25.95;13.68;;;;;;;16.27;100.00;101440.31;4990581;28;20039;-50
2022/09/23 05:00:19;;;;;;;21.77;12.63;;;;;;;16.30;100.00;101439.03;4992823;28;20046;-52
2022/09/23 05:02:47;;;;;;;23.60;13.27;;;;;;;16.38;100.00;101436.09;5000096;28;20031;-48
2022/09/23 05:05:15;;;;;;;21.25;13.68;;;;;;;16.35;100.00;101436.50;5004744;28;20046;-51
2022/09/23 05:07:41;;;;;;;23.00;14.30;;;;;;;16.26;100.00;101437.81;4993704;28;20027;-50
2022/09/23 05:10:07;;;;;;;22.52;12.68;;;;;;;16.09;100.00;101437.53;5000910;28;20046;-52
2022/09/23 05:12:32;;;;;;;24.60;13.82;;;;;;;16.07;100.00;101443.13;4992311;28;20132;-47
2022/09/23 05:14:58;;;;;;;20.43;13.00;;;;;;;16.17;100.00;101443.50;4997061;28;20036;-48
2022/09/23 05:17:24;;;;;;;23.25;15.32;;;;;;;15.99;100.00;101436.13;5000378;28;20049;-50
2022/09/23 05:19:49;;;;;;;23.50;14.30;;;;;;;16.09;100.00;101432.94;4996961;28;20082;-49
2022/09/23 05:22:15;;;;;;;17.58;12.82;;;;;;;16.05;100.00;101440.66;4993465;28;20081;-51
2022/09/23 05:24:40;;;;;;;27.37;15.53;;;;;;;16.04;100.00;101440.88;5015066;28;20063;-47
2022/09/23 05:27:06;;;;;;;25.10;13.15;;;;;;;16.23;100.00;101438.28;5001819;28;20030;-51
2022/09/23 05:29:32;;;;;;;24.80;13.60;;;;;;;15.97;100.00;101440.09;5002116;28;20041;-52
2022/09/23 05:31:57;;;;;;;30.52;17.80;;;;;;;16.11;100.00;101446.22;4994526;28;20031;-50
2022/09/23 05:34:23;;;;;;;26.17;13.83;;;;;;;16.23;100.00;101443.66;5002017;28;20046;-51
2022/09/23 05:36:49;;;;;;;28.35;13.43;;;;;;;16.18;100.00;101447.00;4991846;28;20046;-48
2022/09/23 05:39:15;;;;;;;29.33;15.27;;;;;;;16.20;100.00;101444.91;5000542;28;20035;-50
2022/09/23 05:41:42;;;;;;;21.17;12.53;;;;;;;16.62;100.00;101447.09;5004602;28;20126;-53
2022/09/23 05:44:07;;;;;;;18.58;12.13;;;;;;;16.23;100.00;101449.88;5001112;28;20268;-49
2022/09/23 05:46:33;;;;;;;22.13;12.80;;;;;;;16.16;100.00;101444.53;5000485;28;20081;-52
2022/09/23 05:49:00;;;;;;;17.63;12.15;;;;;;;15.95;100.00;101448.41;5003808;28;20050;-52
2022/09/23 05:51:26;;;;;;;28.30;15.43;;;;;;;16.02;100.00;101451.06;4998062;28;20062;-50
2022/09/23 05:53:53;;;;;;;21.70;13.18;;;;;;;16.07;100.00;101455.81;5009614;28;20030;-49
2022/09/23 05:56:21;;;;;;;22.65;13.40;;;;;;;16.05;100.00;101453.31;5005424;28;20038;-53
2022/09/23 05:58:51;;;;;;;29.17;14.00;;;;;;;16.11;100.00;101449.75;5007743;28;20035;-52
2022/09/23 06:01:20;;;;;;;26.17;13.87;;;;;;;16.51;100.00;101458.59;5001378;28;20072;-53
2022/09/23 06:03:47;;;;;;;28.08;13.75;;;;;;;16.73;100.00;101451.78;5007537;28;20276;-54
2022/09/23 06:06:14;;;;;;;24.08;13.20;;;;;;;16.79;100.00;101452.75;4993317;28;20031;-51
2022/09/23 06:08:41;;;;;;;31.90;15.07;;;;;;;16.51;100.00;101454.03;4988487;28;20023;-52
2022/09/23 06:11:07;;;;;;;71.80;29.42;;;;;;;16.01;100.00;101457.50;4996057;28;20088;-52
2022/09/23 06:13:36;;;;;;;26.30;14.60;;;;;;;16.28;100.00;101451.94;4998275;28;20035;-52
2022/09/23 06:16:13;;;;;;;21.02;12.68;;;;;;;16.29;100.00;101449.03;4999130;28;20284;-50
2022/09/23 06:18:44;;;;;;;25.58;12.60;;;;;;;16.22;100.00;101452.81;4990635;28;20057;-51
2022/09/23 06:21:14;;;;;;;28.53;14.73;;;;;;;16.81;100.00;101449.81;4998574;28;20038;-50
2022/09/23 06:23:40;;;;;;;26.50;15.40;;;;;;;17.00;100.00;101448.84;5000617;28;20289;-53
2022/09/23 06:26:08;;;;;;;23.90;14.17;;;;;;;16.48;100.00;101449.91;5005493;28;20298;-51
2022/09/23 06:28:37;;;;;;;26.87;14.97;;;;;;;16.47;100.00;101448.25;4990859;28;20284;-52
2022/09/23 06:31:07;;;;;;;27.73;14.57;;;;;;;16.72;100.00;101444.72;4992529;28;20332;-49
2022/09/23 06:33:32;;;;;;;27.77;13.90;;;;;;;16.51;100.00;101440.56;4993793;28;20341;-56
2022/09/23 06:36:00;;;;;;;26.95;13.35;;;;;;;16.51;100.00;101447.81;5001323;28;20276;-51
2022/09/23 06:38:27;;;;;;;24.20;13.40;;;;;;;16.46;100.00;101443.06;5007487;28;20045;-51
2022/09/23 06:40:54;;;;;;;31.33;12.20;;;;;;;16.42;100.00;101447.25;5007717;28;20276;-55
2022/09/23 06:43:21;;;;;;;21.67;12.93;;;;;;;16.89;100.00;101447.66;4990524;28;20106;-52
2022/09/23 06:45:52;;;;;;;29.13;13.90;;;;;;;17.16;100.00;101452.00;4993052;28;20787;-51
2022/09/23 06:48:17;;;;;;;26.70;12.93;;;;;;;17.19;100.00;101449.69;4996753;28;20272;-53
2022/09/23 06:50:43;;;;;;;26.47;12.63;;;;;;;16.52;100.00;101444.91;5001993;28;20054;-54
2022/09/23 06:53:08;;;;;;;22.20;13.23;;;;;;;16.59;100.00;101453.75;5001913;28;20356;-55
2022/09/23 06:55:33;;;;;;;24.77;12.43;;;;;;;16.26;100.00;101448.63;4990481;28;20031;-54
2022/09/23 06:57:59;;;;;;;21.90;12.35;;;;;;;16.23;100.00;101444.47;5008357;28;20042;-52
2022/09/23 07:00:25;;;;;;;18.02;12.10;;;;;;;17.27;100.00;101451.25;5026632;28;20045;-57
2022/09/23 07:02:51;;;;;;;19.33;12.57;;;;;;;17.50;100.00;101452.44;5000891;28;20025;-48
2022/09/23 07:05:17;;;;;;;20.85;12.32;;;;;;;16.75;100.00;101451.56;4997659;28;20103;-54
2022/09/23 07:07:43;;;;;;;21.58;13.05;;;;;;;17.02;100.00;101451.31;5007109;28;20027;-53
2022/09/23 07:10:10;;;;;;;20.45;11.38;;;;;;;16.95;100.00;101445.94;4978635;28;20038;-55
2022/09/23 07:12:37;;;;;;;19.33;11.83;;;;;;;16.80;100.00;101449.00;5003221;28;20038;-52
2022/09/23 07:15:03;;;;;;;;;;;;;;;17.06;100.00;101439.81;5012568;28;20284;-50
2022/09/23 07:17:29;;;;;;;24.80;11.77;;;;;;;16.68;100.00;101446.22;5005035;28;19918;-57
2022/09/23 07:19:56;;;;;;;23.00;11.05;;;;;;;16.62;100.00;101447.09;4998133;28;20069;-50
2022/09/23 07:22:23;;;;;;;18.20;11.80;;;;;;;16.82;100.00;101444.22;4997032;28;20102;-58
2022/09/23 07:24:50;;;;;;;22.67;12.90;;;;;;;17.16;100.00;101442.00;5015973;28;20279;-54
2022/09/23 07:27:18;;;;;;;30.42;12.00;;;;;;;16.92;100.00;101446.41;4999255;28;20262;-53
2022/09/23 07:29:47;;;;;;;21.07;11.50;;;;;;;16.91;100.00;101439.34;5004199;28;20034;-54
2022/09/23 07:32:13;;;;;;;17.33;11.37;;;;;;;17.79;100.00;101439.19;5006554;28;20268;-55
2022/09/23 07:34:38;;;;;;;16.67;10.88;;;;;;;18.19;100.00;101451.34;5001636;28;20348;-55
2022/09/23 07:37:04;;;;;;;21.25;11.48;;;;;;;18.46;100.00;101449.03;5013890;28;20040;-55
2022/09/23 07:39:29;;;;;;;17.50;12.00;;;;;;;17.47;100.00;101452.88;5015213;28;20035;-53
2022/09/23 07:41:55;;;;;;;21.42;11.48;;;;;;;18.37;100.00;101450.41;4998423;28;20336;-54
2022/09/23 07:44:21;;;;;;;19.65;10.43;;;;;;;18.21;100.00;101460.03;4999531;28;20037;-57
2022/09/23 07:46:48;;;;;;;23.63;11.82;;;;;;;18.00;100.00;101458.69;4994870;28;20025;-56
2022/09/23 07:49:14;;;;;;;21.27;10.70;;;;;;;17.75;100.00;101455.03;4990998;28;20082;-55
2022/09/23 07:51:44;;;;;;;19.92;11.07;;;;;;;18.36;100.00;101458.78;4971156;28;20275;-55
2022/09/23 07:54:13;;;;;;;15.50;10.80;;;;;;;18.69;100.00;101463.66;4966364;28;20036;-55
2022/09/23 07:56:41;;;;;;;21.53;11.63;;;;;;;19.04;100.00;101460.13;4958790;28;20287;-56
2022/09/23 07:59:09;;;;;;;19.03;10.63;;;;;;;18.62;100.00;101463.78;4963014;28;20354;-58
2022/09/23 08:01:37;;;;;;;21.27;10.63;;;;;;;18.33;100.00;101462.78;4956741;28;20278;-55
2022/09/23 08:04:06;;;;;;;19.70;10.67;;;;;;;18.53;100.00;101453.50;4970777;28;20265;-56
2022/09/23 08:06:32;;;;;;;20.37;10.90;;;;;;;18.70;100.00;101456.34;4957158;28;20270;-56
2022/09/23 08:08:59;;;;;;;19.70;10.90;;;;;;;19.20;100.00;101458.56;4965134;28;20301;-55
2022/09/23 08:11:25;;;;;;;16.53;10.33;;;;;;;19.30;100.00;101454.44;4948760;28;20043;-54
2022/09/23 08:13:52;;;;;;;15.60;10.10;;;;;;;19.12;100.00;101456.25;4968524;28;20282;-54
2022/09/23 08:16:18;;;;;;;20.98;11.32;;;;;;;18.85;100.00;101462.13;4948035;28;20297;-54
2022/09/23 08:18:44;;;;;;;17.02;10.15;;;;;;;19.24;100.00;101458.94;4979692;28;20145;-52
2022/09/23 08:21:11;;;;;;;22.83;12.03;;;;;;;18.96;100.00;101457.78;4957111;28;20047;-53
2022/09/23 08:23:36;;;;;;;17.48;10.68;;;;;;;19.63;100.00;101459.19;4984654;28;20310;-51
2022/09/23 08:26:04;;;;;;;17.00;10.90;;;;;;;19.41;100.00;101460.91;4970944;28;20043;-54
2022/09/23 08:28:32;;;;;;;25.00;11.33;;;;;;;19.28;100.00;101465.53;4952872;28;20036;-53
2022/09/23 08:30:58;;;;;;;20.93;11.03;;;;;;;19.21;100.00;101459.41;4975687;28;20277;-55
2022/09/23 08:33:25;;;;;;;15.27;10.25;;;;;;;19.37;100.00;101462.44;4959442;28;20273;-53
2022/09/23 08:35:51;;;;;;;18.45;10.43;;;;;;;19.23;100.00;101456.44;4950254;28;20077;-58
2022/09/23 08:38:18;;;;;;;21.98;10.65;;;;;;;19.48;100.00;101458.88;4948543;29;20031;-54
2022/09/23 08:40:48;;;;;;;27.77;10.97;;;;;;;19.98;100.00;101457.44;4991518;28;20105;-53
2022/09/23 08:43:26;;;;;;;17.87;9.53;;;;;;;20.44;100.00;101468.25;4954912;28;20279;-56
2022/09/23 08:45:53;;;;;;;20.37;10.77;;;;;;;20.61;100.00;101465.50;4957206;28;20270;-55
2022/09/23 08:48:28;;;;;;;14.50;10.40;;;;;;;20.78;100.00;101459.25;4949371;29;20258;-54
2022/09/23 08:51:00;;;;;;;20.40;10.10;;;;;;;20.93;100.00;101458.69;4984287;28;20326;-57
2022/09/23 08:53:28;;;;;;;15.17;9.03;;;;;;;20.90;100.00;101470.06;4973016;28;20349;-58
2022/09/23 08:55:57;;;;;;;14.93;9.50;;;;;;;21.34;100.00;101461.94;4969639;28;20293;-54
2022/09/23 08:58:59;;;;;;;15.73;9.43;;;;;;;21.58;100.00;101464.41;4980028;28;20286;-56
2022/09/23 09:01:42;;;;;;;14.33;8.70;;;;;;;21.79;100.00;101467.38;4979164;28;20297;-55
2022/09/23 09:04:18;;;;;;;14.67;8.90;;;;;;;22.22;100.00;101463.97;4978907;28;20055;-56
2022/09/23 09:07:07;;;;;;;14.93;8.45;;;;;;;22.48;100.00;101467.75;4976284;28;20038;-53
2022/09/23 09:09:44;;;;;;;14.40;9.50;;;;;;;22.63;100.00;101467.88;4977127;28;20059;-56
2022/09/23 09:12:17;;;;;;;17.57;8.77;;;;;;;22.51;100.00;101466.41;4984040;28;20062;-55
2022/09/23 09:15:17;;;;;;;18.20;8.67;;;;;;;22.45;100.00;101460.91;4971320;28;20047;-54
2022/09/23 09:18:13;;;;;;;18.60;9.43;;;;;;;22.87;97.71;101461.22;4983979;28;20093;-55
2022/09/23 09:21:08;;;;;;;13.03;9.17;;;;;;;22.84;99.49;101456.31;4989388;28;20050;-54
2022/09/23 09:23:42;;;;;;;11.67;8.30;;;;;;;23.88;93.85;101455.63;4995580;28;20023;-56
2022/09/23 09:26:15;;;;;;;16.57;8.07;;;;;;;23.43;90.27;101463.44;4988105;28;20129;-55
2022/09/23 09:28:47;;;;;;;14.77;8.27;;;;;;;24.04;86.09;101458.41;4970371;28;20032;-55
2022/09/23 09:31:31;;;;;;;11.73;7.70;;;;;;;24.60;82.04;101473.97;4968682;28;20095;-55
2022/09/23 09:34:26;;;;;;;17.80;8.13;;;;;;;24.72;82.36;101462.75;4979674;28;20126;-56
2022/09/23 09:37:05;;;;;;;18.27;7.83;;;;;;;25.26;79.11;101460.41;4977797;28;20066;-58
2022/09/23 09:39:34;;;;;;;16.37;7.83;;;;;;;25.06;80.50;101462.13;4981892;28;20033;-55
2022/09/23 09:42:00;;;;;;;17.87;8.73;;;;;;;24.83;81.68;101468.22;4998254;28;20040;-57
2022/09/23 09:44:39;;;;;;;14.38;7.97;;;;;;;24.03;80.82;101456.78;4987916;28;20031;-57
2022/09/23 09:47:39;;;;;;;14.77;7.50;;;;;;;24.56;78.54;101461.13;4979671;28;20035;-55
2022/09/23 09:50:04;;;;;;;16.03;7.93;;;;;;;25.22;79.08;101448.41;4999046;28;20059;-56
2022/09/23 09:52:30;;;;;;;13.77;7.75;;;;;;;26.09;73.58;101457.22;5013849;28;20054;-58
2022/09/23 09:55:11;;;;;;;;;;;;;;;26.71;68.59;101450.41;5013197;28;20035;-56
2022/09/23 09:57:41;;;;;;;13.27;7.53;;;;;;;27.26;66.49;101454.72;4990016;28;19918;-56
2022/09/23 10:00:34;;;;;;;14.27;6.87;;;;;;;28.16;62.17;101454.84;4999274;28;20041;-55
2022/09/23 10:03:08;;;;;;;11.77;7.43;;;;;;;27.39;62.44;101451.25;5006625;28;20066;-54
2022/09/23 10:05:51;;;;;;;12.83;6.03;;;;;;;27.51;59.08;101459.09;4994575;28;20108;-58
2022/09/23 10:08:33;;;;;;;10.43;6.17;;;;;;;26.91;60.90;101449.38;5018358;28;20049;-57
2022/09/23 10:11:03;;;;;;;10.50;5.97;;;;;;;25.88;64.76;101446.41;5004611;28;20027;-55
2022/09/23 10:13:30;;;;;;;16.97;7.33;;;;;;;26.16;65.94;101444.03;4996298;28;20033;-58
2022/09/23 10:15:59;;;;;;;13.97;6.63;;;;;;;26.46;64.78;101444.06;4992840;28;20034;-58
2022/09/23 10:18:33;;;;;;;14.10;7.13;;;;;;;26.73;64.64;101435.25;5005958;28;20038;-58
2022/09/23 10:21:14;;;;;;;10.00;6.70;;;;;;;27.20;63.33;101442.97;5012864;28;20066;-57
2022/09/23 10:23:56;;;;;;;9.80;6.30;;;;;;;27.07;63.54;101432.72;5004402;28;20035;-55
2022/09/23 10:26:31;;;;;;;10.37;5.90;;;;;;;26.91;61.29;101441.13;4999547;28;20035;-59
2022/09/23 10:28:58;;;;;;;13.13;6.50;;;;;;;26.68;60.34;101438.06;4998234;28;20031;-55
2022/09/23 10:31:32;;;;;;;11.27;5.93;;;;;;;26.72;59.20;101444.59;5012764;28;20061;-56
2022/09/23 10:34:23;;;;;;;11.37;5.63;;;;;;;26.54;58.82;101437.94;4993437;28;20038;-59
2022/09/23 10:37:07;;;;;;;10.00;5.00;;;;;;;26.43;59.22;101439.97;4992651;28;20102;-55
2022/09/23 10:49:10;;;;;;;13.97;5.57;;;;;;;27.00;59.51;101444.88;5006915;28;20032;-57
2022/09/23 10:51:47;;;;;;;8.57;5.40;;;;;;;25.93;63.21;101437.31;4992917;28;20054;-58
2022/09/23 10:54:25;;;;;;;11.90;5.07;;;;;;;26.00;61.77;101429.63;5011496;28;20058;-56
2022/09/23 10:56:57;;;;;;;9.97;5.20;;;;;;;26.26;61.16;101426.69;5013668;28;20043;-53
2022/09/23 10:59:46;;;;;;;9.63;5.77;;;;;;;26.42;59.96;101424.63;4989096;28;20030;-62
2022/09/23 11:02:30;;;;;;;8.53;5.07;;;;;;;25.78;62.30;101427.31;5008272;28;20057;-56
2022/09/23 11:05:33;;;;;;;11.17;5.87;;;;;;;26.49;60.78;101424.28;5022206;28;20041;-54
2022/09/23 11:08:11;;;;;;;32.83;10.40;;;;;;;26.86;60.43;101430.22;4995959;28;20046;-56
2022/09/23 11:10:59;;;;;;;14.17;6.73;;;;;;;26.82;58.78;101426.41;5006405;28;20024;-56
2022/09/23 11:13:51;;;;;;;10.00;5.57;;;;;;;27.08;57.60;101426.94;5018476;28;20061;-56
2022/09/23 11:16:40;;;;;;;13.37;4.70;;;;;;;26.18;59.47;101419.91;5013629;28;20037;-54
2022/09/23 11:19:14;;;;;;;11.10;4.73;;;;;;;26.51;58.21;101423.97;5010568;28;20043;-55
2022/09/23 11:22:07;;;;;;;13.63;5.07;;;;;;;26.83;57.54;101425.28;5016538;28;20097;-58
2022/09/23 11:24:59;;;;;;;10.70;4.27;;;;;;;26.20;58.50;101423.16;5003132;28;20051;-57
2022/09/23 11:27:48;;;;;;;7.87;4.37;;;;;;;26.55;58.37;101425.84;5014281;28;20105;-57
2022/09/23 11:30:18;;;;;;;6.90;4.10;;;;;;;26.68;57.29;101426.28;5012276;28;20029;-55
2022/09/23 11:33:01;;;;;;;9.30;4.03;;;;;;;27.17;55.19;101418.88;5006093;28;20043;-58
2022/09/23 11:35:32;;;;;;;10.03;4.40;;;;;;;27.30;54.46;101415.41;4992297;28;20031;-55
2022/09/23 11:38:17;;;;;;;8.20;3.90;;;;;;;27.59;53.63;101417.22;5029213;28;20037;-56
2022/09/23 11:40:53;;;;;;;6.23;3.57;;;;;;;27.18;55.58;101410.34;4993953;28;20054;-58